sensor_id;sensor_type;location;lat;lon;timestamp;temperature;humidity
39585;DHT22;25278;53.674;10.014;2022-11-20T04:32:41;1.90;99.90
39585;DHT22;25278;53.674;10.014;2022-11-20T04:35:06;1.90;99.90
39585;DHT22;25278;53.674;10.014;2022-11-20T04:37:33;1.80;99.90
39585;DHT22;25278;53.674;10.014;2022-11-20T04:39:59;1.80;99.90
39585;DHT22;25278;53.674;10.014;2022-11-20T04:42:25;1.70;99.90
39585;DHT22;25278;53.674;10.014;2022-11-20T04:44:56;1.70;99.90
39585;DHT22;25278;53.674;10.014;2022-11-20T04:47:22;1.80;99.90
39585;DHT22;25278;53.674;10.014;2022-11-20T04:49:48;1.80;99.90
39585;DHT22;25278;53.674;10.014;2022-11-20T04:52:13;1.80;99.90
39585;DHT22;25278;53.674;10.014;2022-11-20T04:54:39;1.70;99.90
39585;DHT22;25278;53.674;10.014;2022-11-20T04:57:05;1.70;99.90
39585;DHT22;25278;53.674;10.014;2022-11-20T04:59:30;1.80;99.90
39585;DHT22;25278;53.674;10.014;2022-11-20T05:01:56;1.70;99.90
39585;DHT22;25278;53.674;10.014;2022-11-20T05:04:21;1.80;99.90
39585;DHT22;25278;53.674;10.014;2022-11-20T05:06:47;1.90;99.90
39585;DHT22;25278;53.674;10.014;2022-11-20T05:09:12;1.80;99.90
39585;DHT22;25278;53.674;10.014;2022-11-20T05:11:38;1.70;99.90
39585;DHT22;25278;53.674;10.014;2022-11-20T05:14:04;1.80;99.90
39585;DHT22;25278;53.674;10.014;2022-11-20T05:16:29;1.70;99.90
39585;DHT22;25278;53.674;10.014;2022-11-20T05:18:55;1.60;99.90
39585;DHT22;25278;53.674;10.014;2022-11-20T05:21:21;1.60;99.90
39585;DHT22;25278;53.674;10.014;2022-11-20T05:23:47;1.60;99.90
39585;DHT22;25278;53.674;10.014;2022-11-20T05:26:16;1.60;99.90
39585;DHT22;25278;53.674;10.014;2022-11-20T05:28:42;1.60;99.90
39585;DHT22;25278;53.674;10.014;2022-11-20T05:31:09;1.60;99.90
39585;DHT22;25278;53.674;10.014;2022-11-20T05:33:36;1.60;99.90
39585;DHT22;25278;53.674;10.014;2022-11-20T05:36:03;1.60;99.90
39585;DHT22;25278;53.674;10.014;2022-11-20T05:38:29;1.70;99.90
39585;DHT22;25278;53.674;10.014;2022-11-20T05:40:55;1.70;99.90
39585;DHT22;25278;53.674;10.014;2022-11-20T05:43:20;1.70;99.90
39585;DHT22;25278;53.674;10.014;2022-11-20T05:45:55;1.80;99.90
39585;DHT22;25278;53.674;10.014;2022-11-20T05:48:20;1.70;99.90
39585;DHT22;25278;53.674;10.014;2022-11-20T05:50:47;1.80;99.90
39585;DHT22;25278;53.674;10.014;2022-11-20T05:53:13;1.70;99.90
39585;DHT22;25278;53.674;10.014;2022-11-20T05:55:38;1.70;99.90
39585;DHT22;25278;53.674;10.014;2022-11-20T05:58:04;1.70;99.90
39585;DHT22;25278;53.674;10.014;2022-11-20T06:00:29;1.60;99.90
39585;DHT22;25278;53.674;10.014;2022-11-20T06:02:55;1.60;99.90
39585;DHT22;25278;53.674;10.014;2022-11-20T06:05:20;1.60;99.90
39585;DHT22;25278;53.674;10.014;2022-11-20T06:07:49;1.60;99.90
39585;DHT22;25278;53.674;10.014;2022-11-20T06:10:14;1.70;99.90
39585;DHT22;25278;53.674;10.014;2022-11-20T06:12:40;1.60;99.90
39585;DHT22;25278;53.674;10.014;2022-11-20T06:15:06;1.60;99.90
39585;DHT22;25278;53.674;10.014;2022-11-20T06:17:31;1.50;99.90
39585;DHT22;25278;53.674;10.014;2022-11-20T06:19:57;1.60;99.90
39585;DHT22;25278;53.674;10.014;2022-11-20T06:22:22;1.60;99.90
39585;DHT22;25278;53.674;10.014;2022-11-20T06:24:48;1.70;99.90
39585;DHT22;25278;53.674;10.014;2022-11-20T06:27:13;1.50;99.90
39585;DHT22;25278;53.674;10.014;2022-11-20T06:29:39;1.40;99.90
39585;DHT22;25278;53.674;10.014;2022-11-20T06:32:04;1.30;99.90
39585;DHT22;25278;53.674;10.014;2022-11-20T06:34:30;1.30;99.90
39585;DHT22;25278;53.674;10.014;2022-11-20T06:36:55;1.20;99.90
39585;DHT22;25278;53.674;10.014;2022-11-20T06:39:21;1.20;99.90
39585;DHT22;25278;53.674;10.014;2022-11-20T06:41:46;1.30;99.90
39585;DHT22;25278;53.674;10.014;2022-11-20T06:44:12;1.30;99.90
39585;DHT22;25278;53.674;10.014;2022-11-20T06:46:37;1.30;99.90
39585;DHT22;25278;53.674;10.014;2022-11-20T06:49:03;1.30;99.90
39585;DHT22;25278;53.674;10.014;2022-11-20T06:51:28;1.40;99.90
39585;DHT22;25278;53.674;10.014;2022-11-20T06:53:54;1.60;99.90
39585;DHT22;25278;53.674;10.014;2022-11-20T06:56:19;1.60;99.90
39585;DHT22;25278;53.674;10.014;2022-11-20T06:58:45;1.60;99.90
39585;DHT22;25278;53.674;10.014;2022-11-20T07:01:12;1.70;99.90
39585;DHT22;25278;53.674;10.014;2022-11-20T07:03:38;1.80;99.90
39585;DHT22;25278;53.674;10.014;2022-11-20T07:06:05;1.80;99.90
39585;DHT22;25278;53.674;10.014;2022-11-20T07:08:30;1.80;99.90
39585;DHT22;25278;53.674;10.014;2022-11-20T07:11:05;1.90;99.90
39585;DHT22;25278;53.674;10.014;2022-11-20T07:13:31;2.00;99.90
39585;DHT22;25278;53.674;10.014;2022-11-20T07:16:04;2.00;99.90
39585;DHT22;25278;53.674;10.014;2022-11-20T07:18:30;2.10;99.90
39585;DHT22;25278;53.674;10.014;2022-11-20T07:20:59;2.10;99.90
39585;DHT22;25278;53.674;10.014;2022-11-20T07:23:24;2.00;99.90
39585;DHT22;25278;53.674;10.014;2022-11-20T07:25:50;1.90;99.90
39585;DHT22;25278;53.674;10.014;2022-11-20T07:28:15;2.00;99.90
39585;DHT22;25278;53.674;10.014;2022-11-20T07:30:41;1.90;99.90
39585;DHT22;25278;53.674;10.014;2022-11-20T07:33:06;1.80;99.90
39585;DHT22;25278;53.674;10.014;2022-11-20T07:35:32;1.80;99.90
39585;DHT22;25278;53.674;10.014;2022-11-20T07:37:58;1.90;99.90
39585;DHT22;25278;53.674;10.014;2022-11-20T07:40:23;1.90;99.90
39585;DHT22;25278;53.674;10.014;2022-11-20T07:42:50;1.90;99.90
39585;DHT22;25278;53.674;10.014;2022-11-20T07:45:17;2.00;99.90
39585;DHT22;25278;53.674;10.014;2022-11-20T07:47:42;1.90;99.90
39585;DHT22;25278;53.674;10.014;2022-11-20T07:50:09;1.90;99.90
39585;DHT22;25278;53.674;10.014;2022-11-20T07:52:34;1.80;99.90
39585;DHT22;25278;53.674;10.014;2022-11-20T07:55:00;1.80;99.90
39585;DHT22;25278;53.674;10.014;2022-11-20T07:57:25;1.80;99.90
39585;DHT22;25278;53.674;10.014;2022-11-20T07:59:51;1.80;99.90
39585;DHT22;25278;53.674;10.014;2022-11-20T08:02:16;1.90;99.90
39585;DHT22;25278;53.674;10.014;2022-11-20T08:04:42;1.90;99.90
39585;DHT22;25278;53.674;10.014;2022-11-20T08:07:07;1.90;99.90
39585;DHT22;25278;53.674;10.014;2022-11-20T08:09:33;1.80;99.90
39585;DHT22;25278;53.674;10.014;2022-11-20T08:11:58;1.90;99.90
39585;DHT22;25278;53.674;10.014;2022-11-20T08:14:42;1.90;99.90
39585;DHT22;25278;53.674;10.014;2022-11-20T08:17:08;1.90;99.90
39585;DHT22;25278;53.674;10.014;2022-11-20T08:19:34;1.80;99.90
39585;DHT22;25278;53.674;10.014;2022-11-20T08:22:02;1.90;99.90
39585;DHT22;25278;53.674;10.014;2022-11-20T08:24:27;2.00;99.90
39585;DHT22;25278;53.674;10.014;2022-11-20T08:26:53;2.20;99.90
39585;DHT22;25278;53.674;10.014;2022-11-20T08:29:18;2.30;99.90
39585;DHT22;25278;53.674;10.014;2022-11-20T08:31:44;2.20;99.90
39585;DHT22;25278;53.674;10.014;2022-11-20T08:34:10;2.20;99.90
39585;DHT22;25278;53.674;10.014;2022-11-20T08:36:36;2.10;99.90
39585;DHT22;25278;53.674;10.014;2022-11-20T08:39:04;2.10;99.90
39585;DHT22;25278;53.674;10.014;2022-11-20T08:41:30;2.10;99.90
39585;DHT22;25278;53.674;10.014;2022-11-20T08:44:04;1.90;99.90
39585;DHT22;25278;53.674;10.014;2022-11-20T08:46:38;2.10;99.90
39585;DHT22;25278;53.674;10.014;2022-11-20T08:49:05;2.10;99.90
39585;DHT22;25278;53.674;10.014;2022-11-20T08:51:31;2.20;99.90
39585;DHT22;25278;53.674;10.014;2022-11-20T08:53:57;2.20;99.90
39585;DHT22;25278;53.674;10.014;2022-11-20T08:56:23;2.20;99.90
39585;DHT22;25278;53.674;10.014;2022-11-20T08:58:50;2.20;99.90
39585;DHT22;25278;53.674;10.014;2022-11-20T09:01:16;2.40;99.90
39585;DHT22;25278;53.674;10.014;2022-11-20T09:03:42;2.20;99.90
39585;DHT22;25278;53.674;10.014;2022-11-20T09:06:07;2.20;99.90
39585;DHT22;25278;53.674;10.014;2022-11-20T09:08:33;2.20;99.90
39585;DHT22;25278;53.674;10.014;2022-11-20T09:10:59;2.20;99.90
39585;DHT22;25278;53.674;10.014;2022-11-20T09:13:27;2.30;99.90
39585;DHT22;25278;53.674;10.014;2022-11-20T09:15:57;2.30;99.90
39585;DHT22;25278;53.674;10.014;2022-11-20T09:18:23;2.40;99.90
39585;DHT22;25278;53.674;10.014;2022-11-20T09:20:49;2.50;99.90
39585;DHT22;25278;53.674;10.014;2022-11-20T09:23:15;2.50;99.90
39585;DHT22;25278;53.674;10.014;2022-11-20T09:25:41;2.50;99.90
39585;DHT22;25278;53.674;10.014;2022-11-20T09:28:07;2.60;99.90
39585;DHT22;25278;53.674;10.014;2022-11-20T09:30:33;2.70;99.90
39585;DHT22;25278;53.674;10.014;2022-11-20T09:32:58;2.90;99.90
39585;DHT22;25278;53.674;10.014;2022-11-20T09:35:24;2.90;99.90
39585;DHT22;25278;53.674;10.014;2022-11-20T09:37:50;3.00;99.90
39585;DHT22;25278;53.674;10.014;2022-11-20T09:40:28;3.10;99.90
39585;DHT22;25278;53.674;10.014;2022-11-20T09:45:56;3.10;99.90
39585;DHT22;25278;53.674;10.014;2022-11-20T09:51:41;3.30;99.90
39585;DHT22;25278;53.674;10.014;2022-11-20T09:56:23;3.50;99.90
39585;DHT22;25278;53.674;10.014;2022-11-20T09:58:53;3.50;99.90
39585;DHT22;25278;53.674;10.014;2022-11-20T10:01:26;3.40;99.90
39585;DHT22;25278;53.674;10.014;2022-11-20T10:04:10;3.30;99.90
39585;DHT22;25278;53.674;10.014;2022-11-20T10:07:00;3.20;99.90
39585;DHT22;25278;53.674;10.014;2022-11-20T10:09:37;3.10;99.90
39585;DHT22;25278;53.674;10.014;2022-11-20T10:12:19;3.10;99.90
39585;DHT22;25278;53.674;10.014;2022-11-20T10:15:06;3.10;99.90
39585;DHT22;25278;53.674;10.014;2022-11-20T10:25:54;4.00;99.90
39585;DHT22;25278;53.674;10.014;2022-11-20T10:28:44;4.20;99.90
39585;DHT22;25278;53.674;10.014;2022-11-20T10:31:38;4.40;99.90
39585;DHT22;25278;53.674;10.014;2022-11-20T10:34:26;4.50;99.90
39585;DHT22;25278;53.674;10.014;2022-11-20T10:37:05;4.40;99.90
39585;DHT22;25278;53.674;10.014;2022-11-20T10:39:54;4.20;99.90
39585;DHT22;25278;53.674;10.014;2022-11-20T10:42:44;4.10;99.90
39585;DHT22;25278;53.674;10.014;2022-11-20T10:48:10;3.70;99.90
39585;DHT22;25278;53.674;10.014;2022-11-20T10:50:39;3.80;99.90
39585;DHT22;25278;53.674;10.014;2022-11-20T10:53:11;4.00;99.90
39585;DHT22;25278;53.674;10.014;2022-11-20T10:56:00;4.00;99.90
39585;DHT22;25278;53.674;10.014;2022-11-20T10:58:45;4.00;99.90
39585;DHT22;25278;53.674;10.014;2022-11-20T11:01:18;3.90;99.90
39585;DHT22;25278;53.674;10.014;2022-11-20T11:03:44;3.80;99.90
39585;DHT22;25278;53.674;10.014;2022-11-20T11:06:39;3.70;99.90
39585;DHT22;25278;53.674;10.014;2022-11-20T11:09:16;3.80;99.90
39585;DHT22;25278;53.674;10.014;2022-11-20T11:11:43;3.80;99.90
39585;DHT22;25278;53.674;10.014;2022-11-20T11:14:12;4.20;99.90
39585;DHT22;25278;53.674;10.014;2022-11-20T11:16:53;5.10;99.90
39585;DHT22;25278;53.674;10.014;2022-11-20T11:19:19;6.40;99.90
39585;DHT22;25278;53.674;10.014;2022-11-20T11:21:51;8.00;99.90
39585;DHT22;25278;53.674;10.014;2022-11-20T11:24:28;8.80;99.90
39585;DHT22;25278;53.674;10.014;2022-11-20T11:26:58;8.50;99.90
39585;DHT22;25278;53.674;10.014;2022-11-20T11:29:24;7.80;99.90
39585;DHT22;25278;53.674;10.014;2022-11-20T11:32:06;7.20;99.90
39585;DHT22;25278;53.674;10.014;2022-11-20T11:34:32;6.50;99.90
39585;DHT22;25278;53.674;10.014;2022-11-20T11:36:59;6.20;99.90
39585;DHT22;25278;53.674;10.014;2022-11-20T11:39:27;5.70;99.90
39585;DHT22;25278;53.674;10.014;2022-11-20T11:41:54;5.50;99.90
39585;DHT22;25278;53.674;10.014;2022-11-20T11:44:31;5.50;99.90
39585;DHT22;25278;53.674;10.014;2022-11-20T12:01:04;5.60;99.90
39585;DHT22;25278;53.674;10.014;2022-11-20T12:03:39;5.40;99.90
39585;DHT22;25278;53.674;10.014;2022-11-20T12:06:17;5.20;99.90
39585;DHT22;25278;53.674;10.014;2022-11-20T12:08:53;5.20;99.90
39585;DHT22;25278;53.674;10.014;2022-11-20T12:14:17;5.00;99.90
39585;DHT22;25278;53.674;10.014;2022-11-20T12:16:50;4.90;99.90
39585;DHT22;25278;53.674;10.014;2022-11-20T12:19:18;5.00;99.90
39585;DHT22;25278;53.674;10.014;2022-11-20T12:22:05;5.00;99.90
39585;DHT22;25278;53.674;10.014;2022-11-20T12:25:02;5.00;99.90
39585;DHT22;25278;53.674;10.014;2022-11-20T12:30:10;4.80;99.90
39585;DHT22;25278;53.674;10.014;2022-11-20T12:35:32;4.50;99.90
39585;DHT22;25278;53.674;10.014;2022-11-20T12:38:30;4.40;99.90
39585;DHT22;25278;53.674;10.014;2022-11-20T12:44:02;4.10;99.90
39585;DHT22;25278;53.674;10.014;2022-11-20T12:47:05;4.20;99.90
39585;DHT22;25278;53.674;10.014;2022-11-20T12:50:06;4.30;99.90
39585;DHT22;25278;53.674;10.014;2022-11-20T12:52:48;4.50;99.90
39585;DHT22;25278;53.674;10.014;2022-11-20T12:58:27;4.90;99.90
39585;DHT22;25278;53.674;10.014;2022-11-20T13:01:06;5.00;99.90
39585;DHT22;25278;53.674;10.014;2022-11-20T13:03:45;5.00;99.90
39585;DHT22;25278;53.674;10.014;2022-11-20T13:06:18;5.00;99.90
39585;DHT22;25278;53.674;10.014;2022-11-20T13:08:54;4.80;99.90
39585;DHT22;25278;53.674;10.014;2022-11-20T13:14:04;4.70;99.90
39585;DHT22;25278;53.674;10.014;2022-11-20T13:19:26;4.70;99.90
39585;DHT22;25278;53.674;10.014;2022-11-20T13:21:53;4.80;99.90
39585;DHT22;25278;53.674;10.014;2022-11-20T13:26:45;4.70;99.90
39585;DHT22;25278;53.674;10.014;2022-11-20T13:29:17;4.60;99.90
39585;DHT22;25278;53.674;10.014;2022-11-20T13:31:44;4.50;99.90
39585;DHT22;25278;53.674;10.014;2022-11-20T13:34:14;4.40;99.90
39585;DHT22;25278;53.674;10.014;2022-11-20T13:36:52;4.40;99.90
39585;DHT22;25278;53.674;10.014;2022-11-20T13:39:32;4.50;99.90
39585;DHT22;25278;53.674;10.014;2022-11-20T13:42:01;4.40;99.90
39585;DHT22;25278;53.674;10.014;2022-11-20T13:46:58;4.40;99.90
39585;DHT22;25278;53.674;10.014;2022-11-20T13:49:39;4.40;99.90
39585;DHT22;25278;53.674;10.014;2022-11-20T13:52:47;4.50;99.90
39585;DHT22;25278;53.674;10.014;2022-11-20T14:01:11;4.80;99.90
39585;DHT22;25278;53.674;10.014;2022-11-20T14:03:40;4.90;99.90
39585;DHT22;25278;53.674;10.014;2022-11-20T14:06:19;4.90;99.90
39585;DHT22;25278;53.674;10.014;2022-11-20T14:08:47;5.00;99.90
39585;DHT22;25278;53.674;10.014;2022-11-20T14:11:20;5.00;99.90
39585;DHT22;25278;53.674;10.014;2022-11-20T14:16:23;5.20;99.90
39585;DHT22;25278;53.674;10.014;2022-11-20T14:18:49;5.10;99.90
39585;DHT22;25278;53.674;10.014;2022-11-20T14:21:31;5.10;99.90
39585;DHT22;25278;53.674;10.014;2022-11-20T14:24:06;5.20;99.90
39585;DHT22;25278;53.674;10.014;2022-11-20T14:26:35;5.00;99.90
39585;DHT22;25278;53.674;10.014;2022-11-20T14:29:02;4.90;99.90
39585;DHT22;25278;53.674;10.014;2022-11-20T14:31:28;4.70;99.90
39585;DHT22;25278;53.674;10.014;2022-11-20T14:33:54;4.60;99.90
39585;DHT22;25278;53.674;10.014;2022-11-20T14:36:22;4.60;99.90
39585;DHT22;25278;53.674;10.014;2022-11-20T14:38:49;4.50;99.90
39585;DHT22;25278;53.674;10.014;2022-11-20T14:41:21;4.50;99.90
39585;DHT22;25278;53.674;10.014;2022-11-20T14:43:56;4.50;99.90
39585;DHT22;25278;53.674;10.014;2022-11-20T14:46:23;4.50;99.90
39585;DHT22;25278;53.674;10.014;2022-11-20T14:49:01;4.20;99.90
39585;DHT22;25278;53.674;10.014;2022-11-20T14:51:32;4.00;99.90
39585;DHT22;25278;53.674;10.014;2022-11-20T14:54:15;3.80;99.90
39585;DHT22;25278;53.674;10.014;2022-11-20T14:56:42;3.80;99.90
39585;DHT22;25278;53.674;10.014;2022-11-20T14:59:08;3.80;99.90
39585;DHT22;25278;53.674;10.014;2022-11-20T15:01:34;3.80;99.90
39585;DHT22;25278;53.674;10.014;2022-11-20T15:04:09;3.70;99.90
39585;DHT22;25278;53.674;10.014;2022-11-20T15:06:35;3.70;99.90
39585;DHT22;25278;53.674;10.014;2022-11-20T15:09:03;3.70;99.90
39585;DHT22;25278;53.674;10.014;2022-11-20T15:11:32;3.60;99.90
39585;DHT22;25278;53.674;10.014;2022-11-20T15:14:02;3.60;99.90
39585;DHT22;25278;53.674;10.014;2022-11-20T15:16:28;3.50;99.90
39585;DHT22;25278;53.674;10.014;2022-11-20T15:18:54;3.40;99.90
39585;DHT22;25278;53.674;10.014;2022-11-20T15:21:20;3.40;99.90
39585;DHT22;25278;53.674;10.014;2022-11-20T15:23:46;3.50;99.90
39585;DHT22;25278;53.674;10.014;2022-11-20T15:26:15;3.60;99.90
39585;DHT22;25278;53.674;10.014;2022-11-20T15:28:44;3.60;99.90
39585;DHT22;25278;53.674;10.014;2022-11-20T15:31:14;3.40;99.90
39585;DHT22;25278;53.674;10.014;2022-11-20T15:33:40;3.30;99.90
39585;DHT22;25278;53.674;10.014;2022-11-20T15:36:06;3.40;99.90
39585;DHT22;25278;53.674;10.014;2022-11-20T15:38:31;3.40;99.90
39585;DHT22;25278;53.674;10.014;2022-11-20T15:40:57;3.30;99.90
39585;DHT22;25278;53.674;10.014;2022-11-20T15:43:23;3.40;99.90
39585;DHT22;25278;53.674;10.014;2022-11-20T15:45:51;3.20;99.90
39585;DHT22;25278;53.674;10.014;2022-11-20T15:48:22;3.20;99.90
39585;DHT22;25278;53.674;10.014;2022-11-20T15:50:57;3.30;99.90
39585;DHT22;25278;53.674;10.014;2022-11-20T15:53:23;3.30;99.90
39585;DHT22;25278;53.674;10.014;2022-11-20T15:55:49;3.40;99.90
39585;DHT22;25278;53.674;10.014;2022-11-20T15:58:14;3.40;99.90
39585;DHT22;25278;53.674;10.014;2022-11-20T16:00:42;3.40;99.90
39585;DHT22;25278;53.674;10.014;2022-11-20T16:03:11;3.30;99.90
39585;DHT22;25278;53.674;10.014;2022-11-20T16:05:36;3.40;99.90
39585;DHT22;25278;53.674;10.014;2022-11-20T16:08:02;3.40;99.90
39585;DHT22;25278;53.674;10.014;2022-11-20T16:10:28;3.40;99.90
39585;DHT22;25278;53.674;10.014;2022-11-20T16:12:54;3.30;99.90
39585;DHT22;25278;53.674;10.014;2022-11-20T16:15:38;3.30;99.90
39585;DHT22;25278;53.674;10.014;2022-11-20T16:18:16;3.20;99.90
39585;DHT22;25278;53.674;10.014;2022-11-20T16:20:42;3.10;99.90
39585;DHT22;25278;53.674;10.014;2022-11-20T16:23:08;3.20;99.90
39585;DHT22;25278;53.674;10.014;2022-11-20T16:25:34;3.20;99.90
39585;DHT22;25278;53.674;10.014;2022-11-20T16:28:00;3.20;99.90
39585;DHT22;25278;53.674;10.014;2022-11-20T16:30:26;3.20;99.90
39585;DHT22;25278;53.674;10.014;2022-11-20T16:32:51;3.20;99.90
39585;DHT22;25278;53.674;10.014;2022-11-20T16:35:17;3.10;99.90
39585;DHT22;25278;53.674;10.014;2022-11-20T16:37:42;3.30;99.90
39585;DHT22;25278;53.674;10.014;2022-11-20T16:40:09;3.20;99.90
39585;DHT22;25278;53.674;10.014;2022-11-20T16:42:35;3.30;99.90
39585;DHT22;25278;53.674;10.014;2022-11-20T16:45:02;3.20;99.90
39585;DHT22;25278;53.674;10.014;2022-11-20T16:47:27;3.20;99.90
39585;DHT22;25278;53.674;10.014;2022-11-20T16:49:53;3.00;99.90
39585;DHT22;25278;53.674;10.014;2022-11-20T16:52:18;3.20;99.90
39585;DHT22;25278;53.674;10.014;2022-11-20T16:54:44;3.20;99.90
39585;DHT22;25278;53.674;10.014;2022-11-20T16:57:09;3.20;99.90
39585;DHT22;25278;53.674;10.014;2022-11-20T16:59:35;3.00;99.90
39585;DHT22;25278;53.674;10.014;2022-11-20T17:02:00;2.90;99.90
39585;DHT22;25278;53.674;10.014;2022-11-20T17:04:26;3.00;99.90
39585;DHT22;25278;53.674;10.014;2022-11-20T17:06:51;2.90;99.90
39585;DHT22;25278;53.674;10.014;2022-11-20T17:09:17;3.00;99.90
39585;DHT22;25278;53.674;10.014;2022-11-20T17:11:42;3.00;99.90
39585;DHT22;25278;53.674;10.014;2022-11-20T17:14:10;3.00;99.90
39585;DHT22;25278;53.674;10.014;2022-11-20T17:16:36;3.10;99.90
39585;DHT22;25278;53.674;10.014;2022-11-20T17:19:03;3.00;99.90
39585;DHT22;25278;53.674;10.014;2022-11-20T17:21:31;3.10;99.90
39585;DHT22;25278;53.674;10.014;2022-11-20T17:24:00;3.10;99.90
39585;DHT22;25278;53.674;10.014;2022-11-20T17:26:27;3.00;99.90
39585;DHT22;25278;53.674;10.014;2022-11-20T17:29:05;3.00;99.90
39585;DHT22;25278;53.674;10.014;2022-11-20T17:31:32;3.00;99.90
39585;DHT22;25278;53.674;10.014;2022-11-20T17:33:58;3.10;99.90
39585;DHT22;25278;53.674;10.014;2022-11-20T17:36:25;3.10;99.90
39585;DHT22;25278;53.674;10.014;2022-11-20T17:38:50;2.90;99.90
39585;DHT22;25278;53.674;10.014;2022-11-20T17:41:23;2.80;99.90
39585;DHT22;25278;53.674;10.014;2022-11-20T17:43:53;2.80;99.90
39585;DHT22;25278;53.674;10.014;2022-11-20T17:46:21;2.70;99.90
39585;DHT22;25278;53.674;10.014;2022-11-20T17:48:48;2.60;99.90
39585;DHT22;25278;53.674;10.014;2022-11-20T17:53:42;2.60;99.90
39585;DHT22;25278;53.674;10.014;2022-11-20T17:56:09;2.60;99.90
39585;DHT22;25278;53.674;10.014;2022-11-20T17:58:53;2.60;99.90
39585;DHT22;25278;53.674;10.014;2022-11-20T18:01:19;2.50;99.90
39585;DHT22;25278;53.674;10.014;2022-11-20T18:03:45;2.40;99.90
39585;DHT22;25278;53.674;10.014;2022-11-20T18:06:17;2.40;99.90
39585;DHT22;25278;53.674;10.014;2022-11-20T18:08:43;2.30;99.90
39585;DHT22;25278;53.674;10.014;2022-11-20T18:11:14;2.30;99.90
39585;DHT22;25278;53.674;10.014;2022-11-20T18:13:40;2.30;99.90
39585;DHT22;25278;53.674;10.014;2022-11-20T18:16:26;2.30;99.90
39585;DHT22;25278;53.674;10.014;2022-11-20T18:18:58;2.20;99.90
39585;DHT22;25278;53.674;10.014;2022-11-20T18:21:26;2.30;99.90
39585;DHT22;25278;53.674;10.014;2022-11-20T18:23:53;2.20;99.90
39585;DHT22;25278;53.674;10.014;2022-11-20T18:26:18;2.20;99.90
39585;DHT22;25278;53.674;10.014;2022-11-20T18:28:44;2.10;99.90
39585;DHT22;25278;53.674;10.014;2022-11-20T18:31:10;2.10;99.90
39585;DHT22;25278;53.674;10.014;2022-11-20T18:33:36;2.10;99.90
39585;DHT22;25278;53.674;10.014;2022-11-20T18:36:12;2.00;99.90
39585;DHT22;25278;53.674;10.014;2022-11-20T18:38:45;2.10;99.90
39585;DHT22;25278;53.674;10.014;2022-11-20T18:41:22;2.20;99.90
39585;DHT22;25278;53.674;10.014;2022-11-20T18:44:11;2.20;99.90
39585;DHT22;25278;53.674;10.014;2022-11-20T18:46:56;2.10;99.90
39585;DHT22;25278;53.674;10.014;2022-11-20T18:49:21;2.00;99.90
39585;DHT22;25278;53.674;10.014;2022-11-20T18:51:47;2.00;99.90
39585;DHT22;25278;53.674;10.014;2022-11-20T18:54:13;2.00;99.90
39585;DHT22;25278;53.674;10.014;2022-11-20T18:56:38;2.00;99.90
39585;DHT22;25278;53.674;10.014;2022-11-20T18:59:06;2.00;99.90
39585;DHT22;25278;53.674;10.014;2022-11-20T19:01:32;2.00;99.90
39585;DHT22;25278;53.674;10.014;2022-11-20T19:03:57;2.00;99.90
39585;DHT22;25278;53.674;10.014;2022-11-20T19:06:24;2.10;99.90
39585;DHT22;25278;53.674;10.014;2022-11-20T19:08:50;2.00;99.90
39585;DHT22;25278;53.674;10.014;2022-11-20T19:11:16;2.10;99.90
39585;DHT22;25278;53.674;10.014;2022-11-20T19:13:41;2.10;99.90
39585;DHT22;25278;53.674;10.014;2022-11-20T19:16:13;2.20;99.90
39585;DHT22;25278;53.674;10.014;2022-11-20T19:18:39;2.20;99.90
39585;DHT22;25278;53.674;10.014;2022-11-20T19:21:14;2.10;99.90
39585;DHT22;25278;53.674;10.014;2022-11-20T19:23:40;2.00;99.90
39585;DHT22;25278;53.674;10.014;2022-11-20T19:26:06;2.00;99.90
39585;DHT22;25278;53.674;10.014;2022-11-20T19:28:34;2.20;99.90
39585;DHT22;25278;53.674;10.014;2022-11-20T19:31:04;2.30;99.90
39585;DHT22;25278;53.674;10.014;2022-11-20T19:33:30;2.30;99.90
39585;DHT22;25278;53.674;10.014;2022-11-20T19:35:56;2.20;99.90
39585;DHT22;25278;53.674;10.014;2022-11-20T19:38:23;2.30;99.90
39585;DHT22;25278;53.674;10.014;2022-11-20T19:40:50;2.40;99.90
39585;DHT22;25278;53.674;10.014;2022-11-20T19:43:15;2.30;99.90
39585;DHT22;25278;53.674;10.014;2022-11-20T19:45:41;2.30;99.90
39585;DHT22;25278;53.674;10.014;2022-11-20T19:48:07;2.20;99.90
39585;DHT22;25278;53.674;10.014;2022-11-20T19:50:32;2.20;99.90
39585;DHT22;25278;53.674;10.014;2022-11-20T19:52:58;2.10;99.90
39585;DHT22;25278;53.674;10.014;2022-11-20T19:55:23;2.00;99.90
39585;DHT22;25278;53.674;10.014;2022-11-20T19:57:49;2.10;99.90
39585;DHT22;25278;53.674;10.014;2022-11-20T20:00:15;2.10;99.90
39585;DHT22;25278;53.674;10.014;2022-11-20T20:02:40;2.20;99.90
39585;DHT22;25278;53.674;10.014;2022-11-20T20:05:06;2.20;99.90
39585;DHT22;25278;53.674;10.014;2022-11-20T20:07:32;2.10;99.90
39585;DHT22;25278;53.674;10.014;2022-11-20T20:09:57;2.00;99.90
39585;DHT22;25278;53.674;10.014;2022-11-20T20:12:23;2.10;99.90
39585;DHT22;25278;53.674;10.014;2022-11-20T20:14:48;2.10;99.90
39585;DHT22;25278;53.674;10.014;2022-11-20T20:17:14;1.90;99.90
39585;DHT22;25278;53.674;10.014;2022-11-20T20:19:39;1.90;99.90
39585;DHT22;25278;53.674;10.014;2022-11-20T20:22:05;1.80;99.90
39585;DHT22;25278;53.674;10.014;2022-11-20T20:24:30;1.70;99.90
39585;DHT22;25278;53.674;10.014;2022-11-20T20:26:56;1.70;99.90
39585;DHT22;25278;53.674;10.014;2022-11-20T20:29:21;1.60;99.90
39585;DHT22;25278;53.674;10.014;2022-11-20T20:31:47;1.40;99.90
39585;DHT22;25278;53.674;10.014;2022-11-20T20:34:13;1.30;99.90
39585;DHT22;25278;53.674;10.014;2022-11-20T20:36:39;1.30;99.90
39585;DHT22;25278;53.674;10.014;2022-11-20T20:39:04;1.30;99.90
39585;DHT22;25278;53.674;10.014;2022-11-20T20:41:30;1.20;99.90
39585;DHT22;25278;53.674;10.014;2022-11-20T20:43:56;1.20;99.90
39585;DHT22;25278;53.674;10.014;2022-11-20T20:46:40;1.10;99.90
39585;DHT22;25278;53.674;10.014;2022-11-20T20:49:07;1.10;99.90
39585;DHT22;25278;53.674;10.014;2022-11-20T20:51:33;1.00;99.90
39585;DHT22;25278;53.674;10.014;2022-11-20T20:53:59;0.90;99.90
39585;DHT22;25278;53.674;10.014;2022-11-20T20:56:24;0.90;99.90
39585;DHT22;25278;53.674;10.014;2022-11-20T20:58:50;0.70;99.90
39585;DHT22;25278;53.674;10.014;2022-11-20T21:01:20;0.60;99.90
39585;DHT22;25278;53.674;10.014;2022-11-20T21:03:46;0.60;99.90
39585;DHT22;25278;53.674;10.014;2022-11-20T21:06:12;0.70;99.90
39585;DHT22;25278;53.674;10.014;2022-11-20T21:08:38;0.60;99.90
39585;DHT22;25278;53.674;10.014;2022-11-20T21:11:07;0.60;99.90
39585;DHT22;25278;53.674;10.014;2022-11-20T21:13:34;0.50;99.90
39585;DHT22;25278;53.674;10.014;2022-11-20T21:16:00;0.50;99.90
39585;DHT22;25278;53.674;10.014;2022-11-20T21:18:26;0.50;99.90
39585;DHT22;25278;53.674;10.014;2022-11-20T21:20:52;0.40;99.90
39585;DHT22;25278;53.674;10.014;2022-11-20T21:23:36;0.30;99.90